sensor_id;sensor_type;location;lat;lon;timestamp;pressure;altitude;pressure_sealevel;temperature;humidity
70323;BME280;57735;56.264;43.898;2023-08-12T00:02:24;101412.16;;;21.67;65.83
70323;BME280;57735;56.264;43.898;2023-08-12T00:04:55;101416.53;;;21.61;65.97
70323;BME280;57735;56.264;43.898;2023-08-12T00:07:25;101407.75;;;21.59;65.95
70323;BME280;57735;56.264;43.898;2023-08-12T00:09:56;101414.03;;;21.59;66.09
70323;BME280;57735;56.264;43.898;2023-08-12T00:12:27;101406.09;;;21.58;66.28
70323;BME280;57735;56.264;43.898;2023-08-12T00:15:01;101403.75;;;21.55;66.14
70323;BME280;57735;56.264;43.898;2023-08-12T00:17:35;101403.31;;;21.51;66.17
70323;BME280;57735;56.264;43.898;2023-08-12T00:20:08;101398.09;;;21.50;66.13
70323;BME280;57735;56.264;43.898;2023-08-12T00:22:42;101396.41;;;21.49;66.19
70323;BME280;57735;56.264;43.898;2023-08-12T00:25:12;101401.00;;;21.48;66.13
70323;BME280;57735;56.264;43.898;2023-08-12T00:27:43;101402.47;;;21.44;66.36
70323;BME280;57735;56.264;43.898;2023-08-12T00:30:14;101400.97;;;21.42;66.35
70323;BME280;57735;56.264;43.898;2023-08-12T00:32:46;101402.22;;;21.39;66.45
70323;BME280;57735;56.264;43.898;2023-08-12T00:35:19;101409.25;;;21.34;66.68
70323;BME280;57735;56.264;43.898;2023-08-12T00:37:50;101404.22;;;21.31;66.93
70323;BME280;57735;56.264;43.898;2023-08-12T00:40:21;101403.16;;;21.25;67.08
70323;BME280;57735;56.264;43.898;2023-08-12T00:42:52;101402.91;;;21.20;67.47
70323;BME280;57735;56.264;43.898;2023-08-12T00:45:22;101400.56;;;21.17;67.32
70323;BME280;57735;56.264;43.898;2023-08-12T00:47:53;101398.88;;;21.16;67.51
70323;BME280;57735;56.264;43.898;2023-08-12T00:50:25;101402.44;;;21.16;67.66
70323;BME280;57735;56.264;43.898;2023-08-12T00:52:57;101395.13;;;21.17;67.58
70323;BME280;57735;56.264;43.898;2023-08-12T00:55:28;101401.78;;;21.14;67.76
70323;BME280;57735;56.264;43.898;2023-08-12T00:57:59;101398.66;;;21.11;67.75
70323;BME280;57735;56.264;43.898;2023-08-12T01:00:31;101398.03;;;21.09;68.05
70323;BME280;57735;56.264;43.898;2023-08-12T01:03:02;101399.25;;;21.06;68.19
70323;BME280;57735;56.264;43.898;2023-08-12T01:05:34;101396.94;;;21.03;68.11
70323;BME280;57735;56.264;43.898;2023-08-12T01:08:05;101407.13;;;21.01;68.63
70323;BME280;57735;56.264;43.898;2023-08-12T01:10:37;101402.47;;;20.95;68.70
70323;BME280;57735;56.264;43.898;2023-08-12T01:16:04;101407.78;;;20.82;68.83
70323;BME280;57735;56.264;43.898;2023-08-12T01:18:37;101405.69;;;20.77;69.30
70323;BME280;57735;56.264;43.898;2023-08-12T01:21:15;101410.00;;;20.72;69.49
70323;BME280;57735;56.264;43.898;2023-08-12T01:23:49;101407.88;;;20.67;70.02
70323;BME280;57735;56.264;43.898;2023-08-12T01:26:23;101410.13;;;20.64;70.10
70323;BME280;57735;56.264;43.898;2023-08-12T01:28:57;101408.88;;;20.60;70.31
70323;BME280;57735;56.264;43.898;2023-08-12T01:31:34;101410.94;;;20.58;70.36
70323;BME280;57735;56.264;43.898;2023-08-12T01:34:15;101413.00;;;20.55;70.37
70323;BME280;57735;56.264;43.898;2023-08-12T01:36:55;101414.84;;;20.55;70.08
70323;BME280;57735;56.264;43.898;2023-08-12T01:39:28;101421.97;;;20.56;70.34
70323;BME280;57735;56.264;43.898;2023-08-12T01:42:01;101421.56;;;20.59;70.00
70323;BME280;57735;56.264;43.898;2023-08-12T01:44:32;101418.06;;;20.65;69.73
70323;BME280;57735;56.264;43.898;2023-08-12T01:47:03;101416.84;;;20.68;69.52
70323;BME280;57735;56.264;43.898;2023-08-12T01:49:37;101412.72;;;20.72;69.45
70323;BME280;57735;56.264;43.898;2023-08-12T01:52:08;101419.44;;;20.76;69.24
70323;BME280;57735;56.264;43.898;2023-08-12T01:54:38;101414.06;;;20.82;68.82
70323;BME280;57735;56.264;43.898;2023-08-12T01:57:11;101409.09;;;20.86;68.74
70323;BME280;57735;56.264;43.898;2023-08-12T01:59:42;101410.38;;;20.90;68.63
70323;BME280;57735;56.264;43.898;2023-08-12T02:02:16;101417.09;;;20.94;68.55
70323;BME280;57735;56.264;43.898;2023-08-12T02:04:47;101417.72;;;20.96;68.50
70323;BME280;57735;56.264;43.898;2023-08-12T02:07:20;101409.38;;;20.98;68.51
70323;BME280;57735;56.264;43.898;2023-08-12T02:09:51;101406.66;;;20.98;68.60
70323;BME280;57735;56.264;43.898;2023-08-12T02:12:24;101419.84;;;21.01;68.13
70323;BME280;57735;56.264;43.898;2023-08-12T02:14:55;101412.16;;;21.04;68.10
70323;BME280;57735;56.264;43.898;2023-08-12T02:17:26;101404.66;;;21.06;67.89
70323;BME280;57735;56.264;43.898;2023-08-12T02:20:01;101414.28;;;21.09;67.75
70323;BME280;57735;56.264;43.898;2023-08-12T02:22:35;101420.13;;;21.12;67.59
70323;BME280;57735;56.264;43.898;2023-08-12T02:25:06;101409.72;;;21.16;67.33
70323;BME280;57735;56.264;43.898;2023-08-12T02:27:37;101419.34;;;21.18;67.35
70323;BME280;57735;56.264;43.898;2023-08-12T02:30:08;101424.63;;;21.20;67.25
70323;BME280;57735;56.264;43.898;2023-08-12T02:32:39;101414.22;;;21.23;67.25
70323;BME280;57735;56.264;43.898;2023-08-12T02:35:13;101413.63;;;21.28;66.52
70323;BME280;57735;56.264;43.898;2023-08-12T02:37:48;101414.69;;;21.34;66.30
70323;BME280;57735;56.264;43.898;2023-08-12T02:40:19;101418.28;;;21.41;65.24
70323;BME280;57735;56.264;43.898;2023-08-12T02:42:50;101417.47;;;21.47;65.36
70323;BME280;57735;56.264;43.898;2023-08-12T02:45:21;101422.50;;;21.50;65.23
70323;BME280;57735;56.264;43.898;2023-08-12T02:47:54;101427.59;;;21.59;63.34
70323;BME280;57735;56.264;43.898;2023-08-12T02:50:25;101419.47;;;21.66;63.53
70323;BME280;57735;56.264;43.898;2023-08-12T02:52:56;101419.72;;;21.71;63.03
70323;BME280;57735;56.264;43.898;2023-08-12T02:55:27;101411.63;;;21.78;62.78
70323;BME280;57735;56.264;43.898;2023-08-12T02:57:58;101415.78;;;21.80;63.24
70323;BME280;57735;56.264;43.898;2023-08-12T03:00:29;101418.28;;;21.82;63.30
70323;BME280;57735;56.264;43.898;2023-08-12T03:03:00;101421.84;;;21.82;63.18
70323;BME280;57735;56.264;43.898;2023-08-12T03:05:32;101420.81;;;21.83;62.77
70323;BME280;57735;56.264;43.898;2023-08-12T03:08:04;101418.97;;;21.90;61.67
70323;BME280;57735;56.264;43.898;2023-08-12T03:10:37;101417.53;;;21.94;61.76
70323;BME280;57735;56.264;43.898;2023-08-12T03:13:08;101417.31;;;21.96;61.82
70323;BME280;57735;56.264;43.898;2023-08-12T03:15:41;101413.34;;;21.99;61.80
70323;BME280;57735;56.264;43.898;2023-08-12T03:18:13;101409.63;;;22.00;60.98
70323;BME280;57735;56.264;43.898;2023-08-12T03:20:43;101405.66;;;22.02;61.33
70323;BME280;57735;56.264;43.898;2023-08-12T03:23:14;101405.25;;;22.05;60.06
70323;BME280;57735;56.264;43.898;2023-08-12T03:25:48;101412.19;;;22.08;60.10
70323;BME280;57735;56.264;43.898;2023-08-12T03:28:19;101415.53;;;22.10;60.42
70323;BME280;57735;56.264;43.898;2023-08-12T03:30:51;101411.13;;;22.09;60.17
70323;BME280;57735;56.264;43.898;2023-08-12T03:33:22;101411.78;;;22.11;60.11
70323;BME280;57735;56.264;43.898;2023-08-12T03:35:53;101409.06;;;22.11;60.01
70323;BME280;57735;56.264;43.898;2023-08-12T03:38:24;101399.88;;;22.12;60.04
70323;BME280;57735;56.264;43.898;2023-08-12T03:40:55;101392.31;;;22.14;59.78
70323;BME280;57735;56.264;43.898;2023-08-12T03:43:25;101402.78;;;22.17;59.46
70323;BME280;57735;56.264;43.898;2023-08-12T03:45:56;101400.31;;;22.22;58.96
70323;BME280;57735;56.264;43.898;2023-08-12T03:48:27;101400.75;;;22.25;58.69
70323;BME280;57735;56.264;43.898;2023-08-12T03:50:58;101395.50;;;22.31;58.53
70323;BME280;57735;56.264;43.898;2023-08-12T03:53:28;101396.97;;;22.33;58.47
70323;BME280;57735;56.264;43.898;2023-08-12T03:55:59;101393.84;;;22.36;58.44
70323;BME280;57735;56.264;43.898;2023-08-12T03:58:30;101398.47;;;22.42;58.50
70323;BME280;57735;56.264;43.898;2023-08-12T04:01:01;101398.66;;;22.47;58.78
70323;BME280;57735;56.264;43.898;2023-08-12T04:03:31;101388.03;;;22.52;58.89
70323;BME280;57735;56.264;43.898;2023-08-12T04:06:02;101398.06;;;22.58;59.00
70323;BME280;57735;56.264;43.898;2023-08-12T04:08:34;101400.78;;;22.65;59.30
70323;BME280;57735;56.264;43.898;2023-08-12T04:11:04;101400.16;;;22.70;59.45
70323;BME280;57735;56.264;43.898;2023-08-12T04:13:35;101399.56;;;22.74;59.51
70323;BME280;57735;56.264;43.898;2023-08-12T04:16:06;101397.88;;;22.80;59.83
70323;BME280;57735;56.264;43.898;2023-08-12T04:18:37;101396.03;;;22.87;59.56
70323;BME280;57735;56.264;43.898;2023-08-12T04:21:08;101398.31;;;22.96;59.35
70323;BME280;57735;56.264;43.898;2023-08-12T04:23:38;101385.34;;;23.05;59.47
70323;BME280;57735;56.264;43.898;2023-08-12T04:26:09;101387.63;;;23.15;59.62
70323;BME280;57735;56.264;43.898;2023-08-12T04:28:40;101385.53;;;23.23;59.28
70323;BME280;57735;56.264;43.898;2023-08-12T04:31:11;101391.56;;;23.32;59.34
70323;BME280;57735;56.264;43.898;2023-08-12T04:33:42;101394.06;;;23.40;58.88
70323;BME280;57735;56.264;43.898;2023-08-12T04:36:12;101393.59;;;23.50;58.62
70323;BME280;57735;56.264;43.898;2023-08-12T04:38:44;101384.63;;;23.56;58.49
70323;BME280;57735;56.264;43.898;2023-08-12T04:41:14;101389.88;;;23.57;58.48
70323;BME280;57735;56.264;43.898;2023-08-12T04:43:45;101381.91;;;23.62;58.51
70323;BME280;57735;56.264;43.898;2023-08-12T04:46:17;101396.72;;;23.66;58.59
70323;BME280;57735;56.264;43.898;2023-08-12T04:48:48;101396.31;;;23.70;58.44
70323;BME280;57735;56.264;43.898;2023-08-12T04:51:22;101394.00;;;23.73;58.37
70323;BME280;57735;56.264;43.898;2023-08-12T04:53:53;101391.47;;;23.78;58.26
70323;BME280;57735;56.264;43.898;2023-08-12T04:56:23;101395.19;;;23.84;58.26
70323;BME280;57735;56.264;43.898;2023-08-12T04:58:55;101395.19;;;23.90;58.33
70323;BME280;57735;56.264;43.898;2023-08-12T05:01:26;101397.25;;;23.95;57.79
70323;BME280;57735;56.264;43.898;2023-08-12T05:03:57;101398.66;;;24.04;57.42
70323;BME280;57735;56.264;43.898;2023-08-12T05:06:30;101403.88;;;24.12;57.43
70323;BME280;57735;56.264;43.898;2023-08-12T05:09:01;101408.22;;;24.20;57.29
70323;BME280;57735;56.264;43.898;2023-08-12T05:11:33;101407.19;;;24.27;57.40
70323;BME280;57735;56.264;43.898;2023-08-12T05:14:04;101400.63;;;24.35;56.85
70323;BME280;57735;56.264;43.898;2023-08-12T05:16:34;101403.25;;;24.48;56.21
70323;BME280;57735;56.264;43.898;2023-08-12T05:19:05;101394.38;;;24.59;56.11
70323;BME280;57735;56.264;43.898;2023-08-12T05:21:36;101402.47;;;24.73;55.41
70323;BME280;57735;56.264;43.898;2023-08-12T05:24:07;101409.06;;;24.83;54.86
70323;BME280;57735;56.264;43.898;2023-08-12T05:26:38;101410.91;;;24.96;54.37
70323;BME280;57735;56.264;43.898;2023-08-12T05:29:09;101410.63;;;25.04;53.48
70323;BME280;57735;56.264;43.898;2023-08-12T05:31:42;101405.72;;;25.13;53.01
70323;BME280;57735;56.264;43.898;2023-08-12T05:34:15;101404.34;;;25.22;52.96
70323;BME280;57735;56.264;43.898;2023-08-12T05:36:46;101408.22;;;25.32;52.44
70323;BME280;57735;56.264;43.898;2023-08-12T05:39:17;101407.50;;;25.44;52.21
70323;BME280;57735;56.264;43.898;2023-08-12T05:41:51;101404.84;;;25.55;50.52
70323;BME280;57735;56.264;43.898;2023-08-12T05:44:22;101406.38;;;25.69;50.07
70323;BME280;57735;56.264;43.898;2023-08-12T05:46:53;101409.78;;;25.83;50.54
70323;BME280;57735;56.264;43.898;2023-08-12T05:49:24;101422.53;;;25.89;50.40
70323;BME280;57735;56.264;43.898;2023-08-12T05:51:55;101434.47;;;25.95;49.43
70323;BME280;57735;56.264;43.898;2023-08-12T05:54:30;101429.94;;;26.00;48.87
70323;BME280;57735;56.264;43.898;2023-08-12T05:57:02;101431.56;;;26.08;48.40
70323;BME280;57735;56.264;43.898;2023-08-12T05:59:41;101419.22;;;26.17;47.51
70323;BME280;57735;56.264;43.898;2023-08-12T06:02:12;101421.63;;;26.25;47.68
70323;BME280;57735;56.264;43.898;2023-08-12T06:04:42;101428.69;;;26.33;47.81
70323;BME280;57735;56.264;43.898;2023-08-12T06:07:13;101438.50;;;26.40;46.87
70323;BME280;57735;56.264;43.898;2023-08-12T06:09:44;101434.00;;;26.46;47.00
70323;BME280;57735;56.264;43.898;2023-08-12T06:12:15;101440.66;;;26.50;46.43
70323;BME280;57735;56.264;43.898;2023-08-12T06:14:46;101438.53;;;26.52;45.54
70323;BME280;57735;56.264;43.898;2023-08-12T06:17:20;101436.75;;;26.58;45.78
70323;BME280;57735;56.264;43.898;2023-08-12T06:19:50;101426.19;;;26.61;46.16
70323;BME280;57735;56.264;43.898;2023-08-12T06:22:21;101425.47;;;26.66;45.92
70323;BME280;57735;56.264;43.898;2023-08-12T06:24:52;101423.09;;;26.69;45.37
70323;BME280;57735;56.264;43.898;2023-08-12T06:27:23;101410.63;;;26.73;45.48
70323;BME280;57735;56.264;43.898;2023-08-12T06:29:53;101408.88;;;26.79;44.64
70323;BME280;57735;56.264;43.898;2023-08-12T06:32:24;101404.69;;;26.88;44.46
70323;BME280;57735;56.264;43.898;2023-08-12T06:34:58;101406.31;;;26.96;44.06
70323;BME280;57735;56.264;43.898;2023-08-12T06:37:29;101409.97;;;27.01;44.17
70323;BME280;57735;56.264;43.898;2023-08-12T06:40:00;101403.94;;;27.11;43.84
70323;BME280;57735;56.264;43.898;2023-08-12T06:42:30;101409.38;;;27.23;42.86
70323;BME280;57735;56.264;43.898;2023-08-12T06:45:01;101398.41;;;27.34;42.96
70323;BME280;57735;56.264;43.898;2023-08-12T06:47:35;101401.41;;;27.44;43.20
70323;BME280;57735;56.264;43.898;2023-08-12T06:50:06;101392.81;;;27.53;42.36
70323;BME280;57735;56.264;43.898;2023-08-12T06:52:37;101388.53;;;27.57;41.59
70323;BME280;57735;56.264;43.898;2023-08-12T06:55:07;101375.19;;;27.60;41.31
70323;BME280;57735;56.264;43.898;2023-08-12T06:57:38;101372.91;;;27.69;41.15
70323;BME280;57735;56.264;43.898;2023-08-12T07:00:09;101382.41;;;27.78;41.28
70323;BME280;57735;56.264;43.898;2023-08-12T07:02:40;101378.94;;;27.83;40.95
70323;BME280;57735;56.264;43.898;2023-08-12T07:05:13;101379.88;;;27.88;41.50
70323;BME280;57735;56.264;43.898;2023-08-12T07:07:44;101372.84;;;27.92;41.43
70323;BME280;57735;56.264;43.898;2023-08-12T07:10:17;101374.59;;;27.98;41.30
70323;BME280;57735;56.264;43.898;2023-08-12T07:12:50;101369.78;;;28.05;41.58
70323;BME280;57735;56.264;43.898;2023-08-12T07:15:21;101365.16;;;28.06;41.15
70323;BME280;57735;56.264;43.898;2023-08-12T07:17:51;101360.50;;;28.06;40.76
70323;BME280;57735;56.264;43.898;2023-08-12T07:20:22;101373.22;;;28.12;40.98
70323;BME280;57735;56.264;43.898;2023-08-12T07:22:53;101367.22;;;28.15;40.78
70323;BME280;57735;56.264;43.898;2023-08-12T07:25:24;101363.41;;;28.17;40.18
70323;BME280;57735;56.264;43.898;2023-08-12T07:27:54;101371.41;;;28.18;39.83
70323;BME280;57735;56.264;43.898;2023-08-12T07:30:25;101372.72;;;28.15;39.24
70323;BME280;57735;56.264;43.898;2023-08-12T07:32:56;101378.94;;;28.23;39.73
70323;BME280;57735;56.264;43.898;2023-08-12T07:35:27;101357.00;;;28.23;39.67
70323;BME280;57735;56.264;43.898;2023-08-12T07:37:57;101361.50;;;28.29;39.75
70323;BME280;57735;56.264;43.898;2023-08-12T07:40:28;101355.59;;;28.37;38.76
70323;BME280;57735;56.264;43.898;2023-08-12T07:42:59;101358.19;;;28.43;38.76
70323;BME280;57735;56.264;43.898;2023-08-12T07:45:30;101347.03;;;28.50;38.77
70323;BME280;57735;56.264;43.898;2023-08-12T07:48:00;101358.69;;;28.57;37.81
70323;BME280;57735;56.264;43.898;2023-08-12T07:50:31;101348.88;;;28.61;37.39
70323;BME280;57735;56.264;43.898;2023-08-12T07:53:05;101359.91;;;28.66;37.14
70323;BME280;57735;56.264;43.898;2023-08-12T07:55:36;101356.19;;;28.72;37.00
70323;BME280;57735;56.264;43.898;2023-08-12T07:58:07;101356.44;;;28.71;36.61
70323;BME280;57735;56.264;43.898;2023-08-12T08:00:38;101346.28;;;28.71;36.59
70323;BME280;57735;56.264;43.898;2023-08-12T08:03:09;101357.13;;;28.78;37.13
70323;BME280;57735;56.264;43.898;2023-08-12T08:05:48;101349.81;;;28.83;37.13
70323;BME280;57735;56.264;43.898;2023-08-12T08:08:21;101356.22;;;28.89;36.57
70323;BME280;57735;56.264;43.898;2023-08-12T08:10:52;101353.06;;;28.97;37.25
70323;BME280;57735;56.264;43.898;2023-08-12T08:13:23;101356.94;;;29.01;38.41
70323;BME280;57735;56.264;43.898;2023-08-12T08:15:54;101361.19;;;29.09;37.97
70323;BME280;57735;56.264;43.898;2023-08-12T08:18:25;101363.47;;;29.17;37.85
70323;BME280;57735;56.264;43.898;2023-08-12T08:20:56;101360.81;;;29.22;37.49
70323;BME280;57735;56.264;43.898;2023-08-12T08:23:27;101355.31;;;29.22;36.27
70323;BME280;57735;56.264;43.898;2023-08-12T08:26:00;101357.91;;;29.29;36.62
70323;BME280;57735;56.264;43.898;2023-08-12T08:28:31;101353.22;;;29.29;35.68
70323;BME280;57735;56.264;43.898;2023-08-12T08:31:01;101369.47;;;29.31;35.69
70323;BME280;57735;56.264;43.898;2023-08-12T08:33:33;101359.59;;;29.35;36.14
70323;BME280;57735;56.264;43.898;2023-08-12T08:36:04;101363.19;;;29.35;35.90
70323;BME280;57735;56.264;43.898;2023-08-12T08:38:36;101352.72;;;29.32;36.12
70323;BME280;57735;56.264;43.898;2023-08-12T08:41:09;101351.13;;;29.36;36.27
70323;BME280;57735;56.264;43.898;2023-08-12T08:43:44;101357.28;;;29.43;36.70
70323;BME280;57735;56.264;43.898;2023-08-12T08:46:17;101349.63;;;29.45;36.12
70323;BME280;57735;56.264;43.898;2023-08-12T08:48:51;101352.44;;;29.50;36.67
70323;BME280;57735;56.264;43.898;2023-08-12T08:51:22;101351.91;;;29.54;36.88
70323;BME280;57735;56.264;43.898;2023-08-12T08:53:54;101337.59;;;29.51;37.12
70323;BME280;57735;56.264;43.898;2023-08-12T08:56:25;101340.09;;;29.53;37.28
70323;BME280;57735;56.264;43.898;2023-08-12T08:58:56;101341.56;;;29.61;36.53
70323;BME280;57735;56.264;43.898;2023-08-12T09:01:28;101336.75;;;29.73;36.70
70323;BME280;57735;56.264;43.898;2023-08-12T09:03:59;101332.19;;;29.83;36.42
70323;BME280;57735;56.264;43.898;2023-08-12T09:06:31;101334.25;;;29.93;36.28
70323;BME280;57735;56.264;43.898;2023-08-12T09:09:05;101338.75;;;29.99;35.86
70323;BME280;57735;56.264;43.898;2023-08-12T09:11:38;101330.53;;;30.04;34.98
70323;BME280;57735;56.264;43.898;2023-08-12T09:14:12;101344.50;;;29.98;34.42
70323;BME280;57735;56.264;43.898;2023-08-12T09:16:43;101349.00;;;29.87;34.39
70323;BME280;57735;56.264;43.898;2023-08-12T09:19:14;101348.19;;;29.86;34.73
70323;BME280;57735;56.264;43.898;2023-08-12T09:21:51;101353.75;;;29.92;34.72
70323;BME280;57735;56.264;43.898;2023-08-12T09:24:27;101349.75;;;29.99;34.38
70323;BME280;57735;56.264;43.898;2023-08-12T09:26:58;101344.28;;;30.04;34.70
70323;BME280;57735;56.264;43.898;2023-08-12T09:29:30;101348.28;;;30.18;34.51
70323;BME280;57735;56.264;43.898;2023-08-12T09:32:12;101346.72;;;30.28;34.39
70323;BME280;57735;56.264;43.898;2023-08-12T09:34:53;101337.38;;;30.29;34.71
70323;BME280;57735;56.264;43.898;2023-08-12T09:37:24;101349.09;;;30.19;34.51
70323;BME280;57735;56.264;43.898;2023-08-12T09:39:57;101346.00;;;30.10;34.15
70323;BME280;57735;56.264;43.898;2023-08-12T09:42:29;101352.34;;;30.11;33.61
70323;BME280;57735;56.264;43.898;2023-08-12T09:44:59;101343.84;;;30.17;33.98
70323;BME280;57735;56.264;43.898;2023-08-12T09:47:33;101335.66;;;30.23;33.46
70323;BME280;57735;56.264;43.898;2023-08-12T09:50:04;101338.72;;;30.26;33.67
70323;BME280;57735;56.264;43.898;2023-08-12T09:52:35;101335.72;;;30.28;33.84
70323;BME280;57735;56.264;43.898;2023-08-12T09:55:07;101328.63;;;30.32;33.44
70323;BME280;57735;56.264;43.898;2023-08-12T09:57:41;101326.47;;;30.39;33.38
70323;BME280;57735;56.264;43.898;2023-08-12T10:00:12;101331.50;;;30.47;33.66
70323;BME280;57735;56.264;43.898;2023-08-12T10:02:50;101335.34;;;30.51;33.07
70323;BME280;57735;56.264;43.898;2023-08-12T10:05:27;101337.34;;;30.56;32.72
70323;BME280;57735;56.264;43.898;2023-08-12T10:07:58;101327.66;;;30.53;32.42
70323;BME280;57735;56.264;43.898;2023-08-12T10:10:35;101329.94;;;30.56;32.49
70323;BME280;57735;56.264;43.898;2023-08-12T10:13:09;101329.41;;;30.59;32.68
70323;BME280;57735;56.264;43.898;2023-08-12T10:15:41;101337.41;;;30.61;32.39
70323;BME280;57735;56.264;43.898;2023-08-12T10:18:13;101339.84;;;30.57;32.52
70323;BME280;57735;56.264;43.898;2023-08-12T10:20:45;101329.34;;;30.54;33.19
70323;BME280;57735;56.264;43.898;2023-08-12T10:23:19;101344.53;;;30.57;32.24
70323;BME280;57735;56.264;43.898;2023-08-12T10:25:53;101334.41;;;30.62;31.88
70323;BME280;57735;56.264;43.898;2023-08-12T10:28:24;101336.34;;;30.67;31.93
70323;BME280;57735;56.264;43.898;2023-08-12T10:30:55;101340.22;;;30.71;31.97
70323;BME280;57735;56.264;43.898;2023-08-12T10:33:26;101334.19;;;30.74;32.11
70323;BME280;57735;56.264;43.898;2023-08-12T10:35:59;101327.06;;;30.78;32.65
70323;BME280;57735;56.264;43.898;2023-08-12T10:38:31;101322.97;;;30.80;33.05
70323;BME280;57735;56.264;43.898;2023-08-12T10:41:22;101330.56;;;30.68;32.93
70323;BME280;57735;56.264;43.898;2023-08-12T10:43:55;101322.81;;;30.60;33.36
70323;BME280;57735;56.264;43.898;2023-08-12T10:46:36;101326.00;;;30.47;33.76
70323;BME280;57735;56.264;43.898;2023-08-12T10:49:09;101327.66;;;30.48;33.69
70323;BME280;57735;56.264;43.898;2023-08-12T10:54:24;101325.53;;;30.55;33.41
70323;BME280;57735;56.264;43.898;2023-08-12T11:02:33;101323.13;;;30.37;33.55
70323;BME280;57735;56.264;43.898;2023-08-12T11:05:07;101320.22;;;30.48;33.71
70323;BME280;57735;56.264;43.898;2023-08-12T11:07:57;101322.78;;;30.55;33.61
70323;BME280;57735;56.264;43.898;2023-08-12T11:10:33;101316.81;;;30.68;33.43
70323;BME280;57735;56.264;43.898;2023-08-12T11:13:05;101316.63;;;30.85;33.75
70323;BME280;57735;56.264;43.898;2023-08-12T11:15:36;101321.63;;;30.88;33.56
70323;BME280;57735;56.264;43.898;2023-08-12T11:18:12;101309.72;;;30.77;32.98
70323;BME280;57735;56.264;43.898;2023-08-12T11:20:43;101311.97;;;30.80;33.36
70323;BME280;57735;56.264;43.898;2023-08-12T11:23:15;101312.84;;;30.91;33.45
70323;BME280;57735;56.264;43.898;2023-08-12T11:25:48;101295.78;;;30.94;33.01
70323;BME280;57735;56.264;43.898;2023-08-12T11:28:20;101296.00;;;30.82;32.97
70323;BME280;57735;56.264;43.898;2023-08-12T11:30:51;101284.94;;;30.77;32.88
70323;BME280;57735;56.264;43.898;2023-08-12T11:33:23;101286.56;;;30.73;32.58
70323;BME280;57735;56.264;43.898;2023-08-12T11:35:54;101282.16;;;30.72;33.00
70323;BME280;57735;56.264;43.898;2023-08-12T11:38:25;101285.47;;;30.74;32.95
70323;BME280;57735;56.264;43.898;2023-08-12T11:40:56;101285.06;;;30.56;32.49
70323;BME280;57735;56.264;43.898;2023-08-12T11:43:27;101286.38;;;30.48;32.74
70323;BME280;57735;56.264;43.898;2023-08-12T11:46:01;101284.97;;;30.50;33.20
70323;BME280;57735;56.264;43.898;2023-08-12T11:48:32;101288.03;;;30.54;33.14
70323;BME280;57735;56.264;43.898;2023-08-12T11:51:05;101275.38;;;30.48;32.47
70323;BME280;57735;56.264;43.898;2023-08-12T11:53:36;101278.00;;;30.38;32.73
70323;BME280;57735;56.264;43.898;2023-08-12T11:56:08;101277.75;;;30.39;33.55
70323;BME280;57735;56.264;43.898;2023-08-12T11:58:39;101278.38;;;30.46;33.11
70323;BME280;57735;56.264;43.898;2023-08-12T12:01:10;101277.53;;;30.46;33.48
70323;BME280;57735;56.264;43.898;2023-08-12T12:03:40;101283.06;;;30.51;33.51
70323;BME280;57735;56.264;43.898;2023-08-12T12:06:12;101275.31;;;30.43;33.51
70323;BME280;57735;56.264;43.898;2023-08-12T12:08:46;101270.38;;;30.45;34.06
70323;BME280;57735;56.264;43.898;2023-08-12T12:11:20;101270.41;;;30.50;33.95
70323;BME280;57735;56.264;43.898;2023-08-12T12:13:50;101271.88;;;30.58;33.95
70323;BME280;57735;56.264;43.898;2023-08-12T12:16:24;101273.31;;;30.65;33.95
70323;BME280;57735;56.264;43.898;2023-08-12T12:18:58;101278.91;;;30.80;33.32
70323;BME280;57735;56.264;43.898;2023-08-12T12:21:32;101286.69;;;30.94;33.21
70323;BME280;57735;56.264;43.898;2023-08-12T12:24:09;101283.97;;;31.04;32.38
70323;BME280;57735;56.264;43.898;2023-08-12T12:26:40;101286.72;;;31.04;32.61
70323;BME280;57735;56.264;43.898;2023-08-12T12:29:11;101273.78;;;31.04;32.30
70323;BME280;57735;56.264;43.898;2023-08-12T12:31:45;101276.69;;;31.25;32.06
70323;BME280;57735;56.264;43.898;2023-08-12T12:34:16;101285.38;;;31.69;31.49
70323;BME280;57735;56.264;43.898;2023-08-12T12:36:48;101282.19;;;32.17;31.26
70323;BME280;57735;56.264;43.898;2023-08-12T12:39:21;101275.25;;;32.60;29.99
70323;BME280;57735;56.264;43.898;2023-08-12T12:41:55;101281.56;;;32.91;30.30
70323;BME280;57735;56.264;43.898;2023-08-12T12:44:28;101275.44;;;33.05;29.63
70323;BME280;57735;56.264;43.898;2023-08-12T12:46:59;101277.16;;;32.96;29.62
70323;BME280;57735;56.264;43.898;2023-08-12T12:49:30;101270.75;;;33.10;29.09
70323;BME280;57735;56.264;43.898;2023-08-12T12:52:00;101272.38;;;33.16;28.88
70323;BME280;57735;56.264;43.898;2023-08-12T12:54:31;101269.22;;;33.48;28.07
70323;BME280;57735;56.264;43.898;2023-08-12T12:57:02;101282.88;;;33.84;28.06
70323;BME280;57735;56.264;43.898;2023-08-12T12:59:34;101283.59;;;34.00;27.88
70323;BME280;57735;56.264;43.898;2023-08-12T13:02:05;101276.19;;;34.24;27.22
70323;BME280;57735;56.264;43.898;2023-08-12T13:04:35;101276.28;;;34.48;26.81
70323;BME280;57735;56.264;43.898;2023-08-12T13:07:06;101282.09;;;34.75;26.30
70323;BME280;57735;56.264;43.898;2023-08-12T13:09:39;101276.38;;;34.95;26.25
70323;BME280;57735;56.264;43.898;2023-08-12T13:12:10;101274.34;;;35.25;25.72
70323;BME280;57735;56.264;43.898;2023-08-12T13:14:41;101267.09;;;35.29;25.82
70323;BME280;57735;56.264;43.898;2023-08-12T13:17:12;101277.78;;;35.59;25.22